ADDS METAR Data INFO
IDs: Format: Raw Decoded Include TAF

Data at: 0443 UTC 24 Apr 2018

KW43 240435Z AUTO 32012G15KT 7SM OVC003 00/00 A3035 RMK AO2
KW43 240415Z AUTO 33013G20KT 1/2SM UP OVC003 01/00 A3034 RMK AO2
KW43 240355Z AUTO 34013G18KT 10SM UP BKN005 OVC009 01/00 A3033 RMK AO2
KW43 240335Z AUTO 01011G18KT 10SM OVC010 01/00 A3032 RMK AO2
KW43 240315Z AUTO 02013KT 10SM BKN007 OVC012 01/00 A3031 RMK AO2
KW43 240255Z AUTO 02011G17KT 10SM UP BKN005 OVC009 01/00 A3032 RMK AO2
KW43 240235Z AUTO 36011KT 7SM -SN OVC007 01/00 A3031 RMK AO2
KW43 240215Z AUTO 35015G28KT 5SM -SN BKN007 OVC012 01/00 A3031 RMK AO2
KW43 240155Z AUTO 34012G22KT 1 1/2SM -SN OVC007 00/00 A3030 RMK AO2
KW43 240135Z AUTO 34015G20KT 1 1/4SM -SN OVC007 00/00 A3029 RMK AO2
KW43 240115Z AUTO 33010G19KT 1SM -SN OVC007 00/00 A3028 RMK AO2
KW43 240055Z AUTO 32007G18KT 1 1/2SM -SN OVC009 00/00 A3027 RMK AO2
KW43 240035Z AUTO 33010G23KT 2SM -SN OVC009 00/00 A3025 RMK AO2
KW43 240015Z AUTO 33015G22KT 2 1/2SM -SN OVC007 00/00 A3023 RMK AO2
KW43 232355Z AUTO 33010G17KT 260V340 7SM -SN OVC009 01/00 A3022 RMK AO2
KW43 232335Z AUTO 31008KT 4SM -SN OVC007 01/00 A3021 RMK AO2 LTG DSNT SW
KW43 232315Z AUTO 28010G20KT 7SM -VCTSSN OVC005 02/01 A3020 RMK AO2
KW43 232255Z AUTO 34018G27KT 5SM UP OVC005 01/00 A3014 RMK AO2 P0008
KW43 232235Z AUTO 29012G21KT 260V320 2 1/2SM -SN OVC007 02/01 A3016 RMK AO2 P0008
KW43 232215Z AUTO 24012G19KT 1 3/4SM RA OVC007 03/02 A3016 RMK AO2 P0005 LTG DSNT SW
KW43 232155Z AUTO 26020G32KT 1 3/4SM RA OVC005 04/02 A3013 RMK AO2 P0017
KW43 232135Z AUTO 25013G20KT 1 1/4SM +RA BKN005 BKN011 OVC034 06/04 A3007 RMK AO2 P0012
KW43 232115Z AUTO 20015G19KT 7SM RA SCT033 BKN041 OVC048 11/07 A3005 RMK AO2 P0001 LTG DSNT SW
KW43 232055Z AUTO 09012G17KT 10SM RA SCT047 OVC060 13/06 A3002 RMK AO2
KW43 232035Z AUTO 10010G21KT 10SM DZ SCT030 SCT049 OVC060 13/06 A3002 RMK AO2
KW43 232015Z AUTO 08009G19KT 10SM -RA SCT024 BKN060 OVC070 14/05 A3002 RMK AO2
KW43 231955Z AUTO 08012G20KT 10SM SCT060 BKN075 BKN100 15/04 A3002 RMK AO2 LTG DSNT SW
KW43 231930Z AUTO 08013G19KT 10SM SCT070 BKN090 16/05 A3003 RMK AO2
KW43 231915Z AUTO 09015G22KT 10SM SCT090 SCT120 17/05 A3003 RMK AO2
KW43 231855Z AUTO 08015G26KT 10SM SCT065 SCT090 SCT120 16/05 A3003 RMK AO2
KW43 231835Z AUTO 10009G21KT 10SM SCT090 BKN120 16/05 A3005 RMK AO2
KW43 231815Z AUTO 08012G17KT 10SM OVC090 14/05 A3006 RMK AO2
KW43 231755Z AUTO 07011G17KT 10SM BKN100 BKN120 13/04 A3007 RMK AO2
KW43 231735Z AUTO 10013G18KT 10SM CLR 15/04 A3007 RMK AO2
KW43 231715Z AUTO 08011KT 10SM CLR 15/04 A3007 RMK AO2
KW43 231655Z AUTO 08011G17KT 10SM SCT110 15/03 A3007 RMK AO2
KW43 231635Z AUTO 07012G17KT 10SM BKN110 14/04 A3006 RMK AO2
KW43 231615Z AUTO 09015G21KT 10SM SCT110 15/03 A3007 RMK AO2
KW43 231555Z AUTO 08012G21KT 10SM CLR 14/03 A3007 RMK AO2
KW43 231535Z AUTO 07011KT 10SM CLR 14/03 A3007 RMK AO2
KW43 231515Z AUTO 08012G18KT 10SM CLR 13/03 A3008 RMK AO2
KW43 231455Z AUTO 08013G17KT 10SM SCT095 SCT120 13/03 A3008 RMK AO2
KW43 231435Z AUTO 08008KT 10SM CLR 12/04 A3009 RMK AO2
KW43 231415Z AUTO 36004KT 10SM CLR 08/03 A3009 RMK AO2
KW43 231355Z AUTO 36003KT 10SM CLR 07/03 A3010 RMK AO2
KW43 231335Z AUTO 02004KT 10SM CLR 06/02 A3010 RMK AO2
KW43 231315Z AUTO 00000KT 10SM CLR 05/02 A3010 RMK AO2
KW43 231255Z AUTO 34003KT 10SM CLR 06/02 A3009 RMK AO2
KW43 231235Z AUTO 00000KT 10SM SCT120 05/02 A3008 RMK AO2
KW43 231215Z AUTO 00000KT 10SM BKN120 07/02 A3008 RMK AO2
KW43 231155Z AUTO 00000KT 10SM SCT120 08/02 A3008 RMK AO2
KW43 231135Z AUTO 00000KT 10SM CLR 08/02 A3008 RMK AO2
KW43 231115Z AUTO 07004KT 10SM CLR 07/02 A3008 RMK AO2
KW43 231055Z AUTO 00000KT 10SM CLR 07/02 A3008 RMK AO2
KW43 231035Z AUTO 09003KT 10SM CLR 07/02 A3008 RMK AO2
KW43 231015Z AUTO 11005KT 10SM CLR 07/02 A3008 RMK AO2
KW43 230955Z AUTO 10004KT 10SM CLR 06/02 A3008 RMK AO2
KW43 230935Z AUTO 11004KT 10SM CLR 06/02 A3008 RMK AO2
KW43 230915Z AUTO 00000KT 10SM CLR 07/02 A3008 RMK AO2
KW43 230855Z AUTO 00000KT 10SM CLR 07/02 A3008 RMK AO2
KW43 230835Z AUTO 00000KT 10SM CLR 08/02 A3008 RMK AO2
KW43 230815Z AUTO 27003KT 10SM CLR 07/02 A3008 RMK AO2
KW43 230755Z AUTO 19005KT 10SM CLR 08/02 A3008 RMK AO2
KW43 230735Z AUTO 18008KT 10SM CLR 08/02 A3008 RMK AO2
KW43 230715Z AUTO 17009KT 10SM CLR 08/02 A3008 RMK AO2
KW43 230655Z AUTO 17008KT 10SM CLR 08/02 A3008 RMK AO2
KW43 230635Z AUTO 17006KT 10SM CLR 09/02 A3008 RMK AO2
KW43 230615Z AUTO 17006KT 10SM CLR 09/02 A3008 RMK AO2
KW43 230555Z AUTO 16008KT 10SM CLR 09/03 A3008 RMK AO2
KW43 230535Z AUTO 10003KT 10SM CLR 10/02 A3008 RMK AO2
KW43 230515Z AUTO 00000KT 10SM CLR 10/02 A3008 RMK AO2
KW43 230455Z AUTO 14005KT 10SM CLR 11/02 A3008 RMK AO2
KW43 230435Z AUTO 11009KT 10SM CLR 11/02 A3008 RMK AO2
KW43 230415Z AUTO 10SM CLR 11/02 A3009 RMK AO2
KW43 230355Z AUTO 11007KT 10SM CLR 11/02 A3009 RMK AO2
KW43 230335Z AUTO 10SM CLR 11/02 A3009 RMK AO2
KW43 230315Z AUTO 10SM CLR 11/03 A3009 RMK AO2
KW43 230255Z AUTO 11007KT 10SM CLR 12/03 A3009 RMK AO2
KW43 230235Z AUTO 09009KT 10SM CLR 13/03 A3009 RMK AO2
KW43 230215Z AUTO 08008KT 10SM CLR 14/03 A3008 RMK AO2
KW43 230155Z AUTO 08006KT 10SM CLR 14/03 A3008 RMK AO2
KW43 230135Z AUTO 08006KT 10SM CLR 15/03 A3008 RMK AO2
KW43 230115Z AUTO 07008G14KT 10SM CLR 16/03 A3007 RMK AO2
KW43 230055Z AUTO 07008KT 10SM CLR 17/03 A3007 RMK AO2
KW43 230035Z AUTO 05008G14KT 10SM CLR 18/03 A3007 RMK AO2
KW43 230015Z AUTO 06008KT 10SM CLR 18/02 A3007 RMK AO2
KW43 222355Z AUTO 05006KT 10SM CLR 18/02 A3007 RMK AO2
KW43 222335Z AUTO 07006KT 10SM CLR 19/02 A3007 RMK AO2
KW43 222315Z AUTO 04007KT 10SM CLR 20/03 A3006 RMK AO2
KW43 222255Z AUTO 08005KT 10SM CLR 20/02 A3006 RMK AO2
KW43 222235Z AUTO 09008KT 10SM CLR 20/02 A3007 RMK AO2
KW43 222215Z AUTO 10007KT 10SM CLR 20/03 A3007 RMK AO2
KW43 222155Z AUTO 06007KT 020V090 10SM CLR 19/02 A3007 RMK AO2
KW43 222135Z AUTO 04005KT 10SM CLR 19/02 A3008 RMK AO2
KW43 222115Z AUTO 00000KT 10SM CLR 18/02 A3008 RMK AO2
KW43 222055Z AUTO 03008KT 10SM CLR 18/02 A3009 RMK AO2
KW43 222035Z AUTO 11003KT 10SM CLR 18/02 A3010 RMK AO2
KW43 222015Z AUTO 01006KT 10SM CLR 18/02 A3011 RMK AO2
KW43 221955Z AUTO 09005KT 10SM CLR 18/02 A3011 RMK AO2
KW43 221935Z AUTO 32005KT 10SM CLR 17/02 A3012 RMK AO2
KW43 221915Z AUTO 01006KT 10SM CLR 17/02 A3012 RMK AO2
KW43 221855Z AUTO 00000KT 10SM CLR 16/02 A3013 RMK AO2
KW43 221835Z AUTO 00000KT 10SM CLR 15/02 A3014 RMK AO2
KW43 221815Z AUTO 00000KT 10SM CLR 15/02 A3015 RMK AO2
KW43 221755Z AUTO 36003KT 10SM CLR 14/02 A3015 RMK AO2
KW43 221735Z AUTO 30006KT 10SM CLR 13/02 A3016 RMK AO2
KW43 221715Z AUTO 00000KT 10SM CLR 13/02 A3016 RMK AO2
KW43 221655Z AUTO 30003KT 10SM CLR 12/02 A3016 RMK AO2